sensor_id;sensor_type;location;lat;lon;timestamp;pressure;altitude;pressure_sealevel;temperature;humidity
59029;BME280;45919;51.420;5.454;2022-08-07T00:00:29;102547.78;;;16.01;62.43
59029;BME280;45919;51.420;5.454;2022-08-07T00:01:30;102548.66;;;16.01;62.47
59029;BME280;45919;51.420;5.454;2022-08-07T00:02:32;102542.53;;;16.01;62.50
59029;BME280;45919;51.420;5.454;2022-08-07T00:03:34;102542.41;;;15.98;62.42
59029;BME280;45919;51.420;5.454;2022-08-07T00:04:35;102545.03;;;15.98;62.47
59029;BME280;45919;51.420;5.454;2022-08-07T00:05:37;102545.03;;;15.98;62.50
59029;BME280;45919;51.420;5.454;2022-08-07T00:06:39;102544.09;;;15.94;62.96
59029;BME280;45919;51.420;5.454;2022-08-07T00:07:40;102544.09;;;15.94;62.36
59029;BME280;45919;51.420;5.454;2022-08-07T00:08:42;102537.06;;;15.93;62.65
59029;BME280;45919;51.420;5.454;2022-08-07T00:09:44;102547.56;;;15.92;63.03
59029;BME280;45919;51.420;5.454;2022-08-07T00:10:54;102536.09;;;15.88;62.84
59029;BME280;45919;51.420;5.454;2022-08-07T00:11:56;102540.47;;;15.87;62.65
59029;BME280;45919;51.420;5.454;2022-08-07T00:13:00;102541.38;;;15.89;62.97
59029;BME280;45919;51.420;5.454;2022-08-07T00:14:03;102541.34;;;15.88;62.85
59029;BME280;45919;51.420;5.454;2022-08-07T00:15:05;102529.88;;;15.86;63.21
59029;BME280;45919;51.420;5.454;2022-08-07T00:16:07;102521.03;;;15.82;63.41
59029;BME280;45919;51.420;5.454;2022-08-07T00:17:09;102528.00;;;15.80;63.28
59029;BME280;45919;51.420;5.454;2022-08-07T00:18:10;102527.22;;;15.84;63.28
59029;BME280;45919;51.420;5.454;2022-08-07T00:19:12;102532.47;;;15.83;63.21
59029;BME280;45919;51.420;5.454;2022-08-07T00:20:14;102522.75;;;15.80;62.94
59029;BME280;45919;51.420;5.454;2022-08-07T00:21:15;102448.06;;;15.35;63.38
59029;BME280;45919;51.420;5.454;2022-08-07T00:22:18;102529.78;;;15.81;63.29
59029;BME280;45919;51.420;5.454;2022-08-07T00:23:20;102534.16;;;15.79;63.33
59029;BME280;45919;51.420;5.454;2022-08-07T00:24:22;102531.53;;;15.81;63.31
59029;BME280;45919;51.420;5.454;2022-08-07T00:25:23;102513.75;;;15.70;63.33
59029;BME280;45919;51.420;5.454;2022-08-07T00:26:25;102528.81;;;15.77;63.42
59029;BME280;45919;51.420;5.454;2022-08-07T00:27:27;102530.63;;;15.78;63.34
59029;BME280;45919;51.420;5.454;2022-08-07T00:28:29;102522.66;;;15.75;63.50
59029;BME280;45919;51.420;5.454;2022-08-07T00:29:31;102502.19;;;15.62;63.53
59029;BME280;45919;51.420;5.454;2022-08-07T00:30:33;102517.34;;;15.74;63.58
59029;BME280;45919;51.420;5.454;2022-08-07T00:31:34;102520.88;;;15.74;63.49
59029;BME280;45919;51.420;5.454;2022-08-07T00:32:36;102518.22;;;15.73;63.29
59029;BME280;45919;51.420;5.454;2022-08-07T00:33:38;102519.91;;;15.71;63.80
59029;BME280;45919;51.420;5.454;2022-08-07T00:34:41;102522.56;;;15.71;64.04
59029;BME280;45919;51.420;5.454;2022-08-07T00:35:42;102519.00;;;15.69;64.10
59029;BME280;45919;51.420;5.454;2022-08-07T00:36:46;102508.44;;;15.67;64.21
59029;BME280;45919;51.420;5.454;2022-08-07T00:37:48;102503.91;;;15.61;64.55
59029;BME280;45919;51.420;5.454;2022-08-07T00:38:50;102509.28;;;15.64;64.51
59029;BME280;45919;51.420;5.454;2022-08-07T00:39:52;102510.97;;;15.62;64.58
59029;BME280;45919;51.420;5.454;2022-08-07T00:40:56;102513.53;;;15.59;64.74
59029;BME280;45919;51.420;5.454;2022-08-07T00:41:59;102507.38;;;15.59;64.97
59029;BME280;45919;51.420;5.454;2022-08-07T00:43:00;102514.38;;;15.57;64.96
59029;BME280;45919;51.420;5.454;2022-08-07T00:44:02;102509.06;;;15.55;65.17
59029;BME280;45919;51.420;5.454;2022-08-07T00:45:04;102511.72;;;15.57;65.01
59029;BME280;45919;51.420;5.454;2022-08-07T00:46:06;102504.66;;;15.56;64.83
59029;BME280;45919;51.420;5.454;2022-08-07T00:47:08;102490.38;;;15.42;65.09
59029;BME280;45919;51.420;5.454;2022-08-07T00:48:10;102510.72;;;15.50;65.46
59029;BME280;45919;51.420;5.454;2022-08-07T00:49:12;102404.88;;;14.85;65.60
59029;BME280;45919;51.420;5.454;2022-08-07T00:50:14;102501.88;;;15.46;65.38
59029;BME280;45919;51.420;5.454;2022-08-07T00:51:16;102505.22;;;15.39;65.95
59029;BME280;45919;51.420;5.454;2022-08-07T00:52:18;102515.78;;;15.40;66.15
59029;BME280;45919;51.420;5.454;2022-08-07T00:53:20;102519.25;;;15.39;66.03
59029;BME280;45919;51.420;5.454;2022-08-07T00:54:22;102511.31;;;15.36;66.07
59029;BME280;45919;51.420;5.454;2022-08-07T00:55:24;102520.06;;;15.35;66.30
59029;BME280;45919;51.420;5.454;2022-08-07T00:56:26;102513.91;;;15.35;66.32
59029;BME280;45919;51.420;5.454;2022-08-07T00:57:31;102504.19;;;15.32;66.51
59029;BME280;45919;51.420;5.454;2022-08-07T00:58:32;102503.19;;;15.27;66.09
59029;BME280;45919;51.420;5.454;2022-08-07T00:59:35;102504.16;;;15.30;66.36
59029;BME280;45919;51.420;5.454;2022-08-07T01:00:37;102508.44;;;15.25;66.85
59029;BME280;45919;51.420;5.454;2022-08-07T01:01:40;102507.56;;;15.26;66.73
59029;BME280;45919;51.420;5.454;2022-08-07T01:02:42;102499.59;;;15.23;66.82
59029;BME280;45919;51.420;5.454;2022-08-07T01:03:43;102506.69;;;15.26;66.48
59029;BME280;45919;51.420;5.454;2022-08-07T01:04:45;102502.22;;;15.22;66.99
59029;BME280;45919;51.420;5.454;2022-08-07T01:05:48;102506.66;;;15.24;66.94
59029;BME280;45919;51.420;5.454;2022-08-07T01:06:49;102505.72;;;15.21;66.90
59029;BME280;45919;51.420;5.454;2022-08-07T01:07:51;102499.50;;;15.18;67.25
59029;BME280;45919;51.420;5.454;2022-08-07T01:08:53;102509.16;;;15.20;67.03
59029;BME280;45919;51.420;5.454;2022-08-07T01:09:55;102492.47;;;15.19;66.85
59029;BME280;45919;51.420;5.454;2022-08-07T01:10:56;102498.59;;;15.16;67.38
59029;BME280;45919;51.420;5.454;2022-08-07T01:11:59;102488.81;;;15.11;67.57
59029;BME280;45919;51.420;5.454;2022-08-07T01:13:01;102499.34;;;15.12;67.25
59029;BME280;45919;51.420;5.454;2022-08-07T01:14:03;102495.81;;;15.12;67.37
59029;BME280;45919;51.420;5.454;2022-08-07T01:15:05;102491.47;;;15.12;67.19
59029;BME280;45919;51.420;5.454;2022-08-07T01:16:07;102494.03;;;15.09;67.35
59029;BME280;45919;51.420;5.454;2022-08-07T01:17:09;102486.69;;;14.96;67.96
59029;BME280;45919;51.420;5.454;2022-08-07T01:18:12;102492.31;;;15.10;67.76
59029;BME280;45919;51.420;5.454;2022-08-07T01:19:15;102497.59;;;15.11;67.41
59029;BME280;45919;51.420;5.454;2022-08-07T01:20:21;102493.19;;;15.12;67.51
59029;BME280;45919;51.420;5.454;2022-08-07T01:21:26;102493.97;;;15.06;67.70
59029;BME280;45919;51.420;5.454;2022-08-07T01:22:28;102493.91;;;15.04;67.64
59029;BME280;45919;51.420;5.454;2022-08-07T01:23:31;102493.91;;;15.04;67.64
59029;BME280;45919;51.420;5.454;2022-08-07T01:24:33;102494.75;;;15.02;67.89
59029;BME280;45919;51.420;5.454;2022-08-07T01:25:36;102490.38;;;15.02;67.88
59029;BME280;45919;51.420;5.454;2022-08-07T01:26:38;102485.91;;;15.00;67.99
59029;BME280;45919;51.420;5.454;2022-08-07T01:27:39;102468.97;;;14.87;68.02
59029;BME280;45919;51.420;5.454;2022-08-07T01:28:42;102488.56;;;15.00;68.00
59029;BME280;45919;51.420;5.454;2022-08-07T01:29:44;102487.63;;;14.98;68.12
59029;BME280;45919;51.420;5.454;2022-08-07T01:30:47;102481.41;;;14.94;68.32
59029;BME280;45919;51.420;5.454;2022-08-07T01:31:51;102471.63;;;14.88;68.20
59029;BME280;45919;51.420;5.454;2022-08-07T01:32:52;102484.94;;;14.94;68.11
59029;BME280;45919;51.420;5.454;2022-08-07T01:33:56;102478.75;;;14.92;68.35
59029;BME280;45919;51.420;5.454;2022-08-07T01:34:59;102476.97;;;14.91;68.56
59029;BME280;45919;51.420;5.454;2022-08-07T01:36:01;102481.34;;;14.91;68.54
59029;BME280;45919;51.420;5.454;2022-08-07T01:37:03;102481.31;;;14.89;68.49
59029;BME280;45919;51.420;5.454;2022-08-07T01:38:05;102487.50;;;14.91;69.06
59029;BME280;45919;51.420;5.454;2022-08-07T01:39:07;102475.06;;;14.84;68.92
59029;BME280;45919;51.420;5.454;2022-08-07T01:40:10;102482.97;;;14.86;68.82
59029;BME280;45919;51.420;5.454;2022-08-07T01:41:15;102483.94;;;14.89;69.09
59029;BME280;45919;51.420;5.454;2022-08-07T01:42:18;102470.50;;;14.78;68.48
59029;BME280;45919;51.420;5.454;2022-08-07T01:43:20;102475.78;;;14.80;69.06
59029;BME280;45919;51.420;5.454;2022-08-07T01:44:22;102485.44;;;14.81;69.05
59029;BME280;45919;51.420;5.454;2022-08-07T01:45:24;102479.31;;;14.80;68.89
59029;BME280;45919;51.420;5.454;2022-08-07T01:46:27;102478.50;;;14.81;69.10
59029;BME280;45919;51.420;5.454;2022-08-07T01:47:29;102463.34;;;14.73;68.74
59029;BME280;45919;51.420;5.454;2022-08-07T01:48:30;102474.81;;;14.76;69.39
59029;BME280;45919;51.420;5.454;2022-08-07T01:49:32;102449.09;;;14.64;69.36
59029;BME280;45919;51.420;5.454;2022-08-07T01:50:36;102475.72;;;14.77;69.47
59029;BME280;45919;51.420;5.454;2022-08-07T01:51:40;102473.94;;;14.76;68.79
59029;BME280;45919;51.420;5.454;2022-08-07T01:52:44;102462.38;;;14.69;69.19
59029;BME280;45919;51.420;5.454;2022-08-07T01:53:57;102472.38;;;14.82;69.22
59029;BME280;45919;51.420;5.454;2022-08-07T01:55:01;102466.72;;;14.67;69.43
59029;BME280;45919;51.420;5.454;2022-08-07T01:56:12;102477.50;;;14.78;69.51
59029;BME280;45919;51.420;5.454;2022-08-07T01:57:20;102465.03;;;14.70;69.84
59029;BME280;45919;51.420;5.454;2022-08-07T01:58:28;102472.13;;;14.73;70.02
59029;BME280;45919;51.420;5.454;2022-08-07T01:59:53;102471.44;;;14.80;69.74
59029;BME280;45919;51.420;5.454;2022-08-07T02:01:09;102471.31;;;14.76;69.80
59029;BME280;45919;51.420;5.454;2022-08-07T02:02:21;102472.03;;;14.70;69.83
59029;BME280;45919;51.420;5.454;2022-08-07T02:03:25;102471.91;;;14.64;70.32
59029;BME280;45919;51.420;5.454;2022-08-07T02:05:40;102472.75;;;14.63;70.28
59029;BME280;45919;51.420;5.454;2022-08-07T02:06:44;102464.78;;;14.59;70.11
59029;BME280;45919;51.420;5.454;2022-08-07T02:07:49;102471.84;;;14.62;70.14
59029;BME280;45919;51.420;5.454;2022-08-07T02:08:53;102468.22;;;14.57;70.08
59029;BME280;45919;51.420;5.454;2022-08-07T02:09:56;102473.47;;;14.57;70.19
59029;BME280;45919;51.420;5.454;2022-08-07T02:10:59;102460.16;;;14.49;70.72
59029;BME280;45919;51.420;5.454;2022-08-07T02:12:03;102472.59;;;14.56;70.66
59029;BME280;45919;51.420;5.454;2022-08-07T02:13:19;102469.91;;;14.55;70.61
59029;BME280;45919;51.420;5.454;2022-08-07T02:14:23;102393.53;;;14.13;70.90
59029;BME280;45919;51.420;5.454;2022-08-07T02:15:27;102462.84;;;14.52;70.90
59029;BME280;45919;51.420;5.454;2022-08-07T02:16:31;102464.56;;;14.50;70.94
59029;BME280;45919;51.420;5.454;2022-08-07T02:17:36;102471.53;;;14.50;71.24
59029;BME280;45919;51.420;5.454;2022-08-07T02:18:39;102439.56;;;14.31;71.38
59029;BME280;45919;51.420;5.454;2022-08-07T02:19:42;102464.53;;;14.49;71.35
59029;BME280;45919;51.420;5.454;2022-08-07T02:20:48;102465.41;;;14.49;70.96
59029;BME280;45919;51.420;5.454;2022-08-07T02:21:53;102463.63;;;14.48;70.98
59029;BME280;45919;51.420;5.454;2022-08-07T02:22:59;102466.28;;;14.50;71.23
59029;BME280;45919;51.420;5.454;2022-08-07T02:24:03;102467.13;;;14.47;71.24
59029;BME280;45919;51.420;5.454;2022-08-07T02:25:06;102466.16;;;14.43;70.99
59029;BME280;45919;51.420;5.454;2022-08-07T02:26:10;102461.72;;;14.42;71.34
59029;BME280;45919;51.420;5.454;2022-08-07T02:27:13;102461.72;;;14.42;71.91
59029;BME280;45919;51.420;5.454;2022-08-07T02:28:17;102457.31;;;14.41;71.74
59029;BME280;45919;51.420;5.454;2022-08-07T02:29:20;102457.28;;;14.40;71.61
59029;BME280;45919;51.420;5.454;2022-08-07T02:30:23;102450.19;;;14.37;71.54
59029;BME280;45919;51.420;5.454;2022-08-07T02:31:26;102425.34;;;14.24;71.47
59029;BME280;45919;51.420;5.454;2022-08-07T02:32:29;102456.38;;;14.38;71.60
59029;BME280;45919;51.420;5.454;2022-08-07T02:33:33;102449.41;;;14.40;71.71
59029;BME280;45919;51.420;5.454;2022-08-07T02:34:37;102459.03;;;14.39;71.89
59029;BME280;45919;51.420;5.454;2022-08-07T02:35:40;102455.47;;;14.37;72.26
59029;BME280;45919;51.420;5.454;2022-08-07T02:36:44;102385.13;;;13.93;72.19
59029;BME280;45919;51.420;5.454;2022-08-07T02:37:47;102463.38;;;14.39;72.27
59029;BME280;45919;51.420;5.454;2022-08-07T02:38:50;102444.72;;;14.28;72.29
59029;BME280;45919;51.420;5.454;2022-08-07T02:39:54;102456.31;;;14.36;72.49
59029;BME280;45919;51.420;5.454;2022-08-07T02:40:58;102458.94;;;14.34;72.88
59029;BME280;45919;51.420;5.454;2022-08-07T02:42:01;102458.00;;;14.32;72.72
59029;BME280;45919;51.420;5.454;2022-08-07T02:43:04;102454.47;;;14.32;72.65
59029;BME280;45919;51.420;5.454;2022-08-07T02:44:06;102456.13;;;14.28;72.78
59029;BME280;45919;51.420;5.454;2022-08-07T02:45:11;102459.66;;;14.29;72.89
59029;BME280;45919;51.420;5.454;2022-08-07T02:46:13;102435.69;;;14.16;73.11
59029;BME280;45919;51.420;5.454;2022-08-07T02:47:17;102455.19;;;14.26;73.08
59029;BME280;45919;51.420;5.454;2022-08-07T02:48:19;102398.22;;;13.91;73.04
59029;BME280;45919;51.420;5.454;2022-08-07T02:49:21;102453.38;;;14.23;73.14
59029;BME280;45919;51.420;5.454;2022-08-07T02:50:23;102412.66;;;14.07;72.85
59029;BME280;45919;51.420;5.454;2022-08-07T02:51:25;102450.78;;;14.25;72.83
59029;BME280;45919;51.420;5.454;2022-08-07T02:53:59;102428.53;;;14.10;72.75
59029;BME280;45919;51.420;5.454;2022-08-07T02:55:17;102449.91;;;14.25;73.33
59029;BME280;45919;51.420;5.454;2022-08-07T02:56:20;102432.13;;;14.14;72.97
59029;BME280;45919;51.420;5.454;2022-08-07T02:57:23;102450.59;;;14.17;73.33
59029;BME280;45919;51.420;5.454;2022-08-07T02:58:26;102452.28;;;14.15;73.26
59029;BME280;45919;51.420;5.454;2022-08-07T02:59:30;102430.16;;;14.05;73.01
59029;BME280;45919;51.420;5.454;2022-08-07T03:00:33;102443.44;;;14.11;72.88
59029;BME280;45919;51.420;5.454;2022-08-07T03:01:37;102445.16;;;14.11;72.90
59029;BME280;45919;51.420;5.454;2022-08-07T03:02:41;102436.19;;;14.03;73.48
59029;BME280;45919;51.420;5.454;2022-08-07T03:03:45;102454.69;;;14.07;73.04
59029;BME280;45919;51.420;5.454;2022-08-07T03:04:48;102450.31;;;14.06;73.37
59029;BME280;45919;51.420;5.454;2022-08-07T03:05:51;102449.44;;;14.07;73.87
59029;BME280;45919;51.420;5.454;2022-08-07T03:06:54;102425.41;;;13.92;73.54
59029;BME280;45919;51.420;5.454;2022-08-07T03:07:57;102457.25;;;14.04;73.60
59029;BME280;45919;51.420;5.454;2022-08-07T03:09:03;102452.97;;;14.08;73.36
59029;BME280;45919;51.420;5.454;2022-08-07T03:10:07;102447.56;;;14.02;73.80
59029;BME280;45919;51.420;5.454;2022-08-07T03:11:09;102430.47;;;13.85;73.34
59029;BME280;45919;51.420;5.454;2022-08-07T03:12:12;102446.59;;;13.98;73.71
59029;BME280;45919;51.420;5.454;2022-08-07T03:13:16;102439.47;;;13.94;74.11
59029;BME280;45919;51.420;5.454;2022-08-07T03:14:18;102455.28;;;13.95;74.19
59029;BME280;45919;51.420;5.454;2022-08-07T03:15:21;102452.69;;;13.97;73.66
59029;BME280;45919;51.420;5.454;2022-08-07T03:16:23;102446.41;;;13.92;73.87
59029;BME280;45919;51.420;5.454;2022-08-07T03:17:26;102434.91;;;13.86;73.76
59029;BME280;45919;51.420;5.454;2022-08-07T03:18:28;102447.34;;;13.94;73.90
59029;BME280;45919;51.420;5.454;2022-08-07T03:19:30;102449.03;;;13.92;73.78
59029;BME280;45919;51.420;5.454;2022-08-07T03:20:33;102450.78;;;13.91;74.32
59029;BME280;45919;51.420;5.454;2022-08-07T03:21:35;102423.16;;;13.73;74.14
59029;BME280;45919;51.420;5.454;2022-08-07T03:22:38;102429.44;;;13.79;74.41
59029;BME280;45919;51.420;5.454;2022-08-07T03:23:42;102443.72;;;13.89;74.20
59029;BME280;45919;51.420;5.454;2022-08-07T03:24:45;102449.84;;;13.89;74.54
59029;BME280;45919;51.420;5.454;2022-08-07T03:25:47;102409.03;;;13.68;74.47
59029;BME280;45919;51.420;5.454;2022-08-07T03:26:49;102425.00;;;13.76;74.37
59029;BME280;45919;51.420;5.454;2022-08-07T03:27:53;102422.38;;;13.76;73.91
59029;BME280;45919;51.420;5.454;2022-08-07T03:28:56;102443.69;;;13.87;74.50
59029;BME280;45919;51.420;5.454;2022-08-07T03:29:59;102443.63;;;13.85;74.82
59029;BME280;45919;51.420;5.454;2022-08-07T03:31:02;102448.94;;;13.87;74.64
59029;BME280;45919;51.420;5.454;2022-08-07T03:32:25;102357.47;;;13.39;74.36
59029;BME280;45919;51.420;5.454;2022-08-07T03:33:30;102439.22;;;13.84;74.44
59029;BME280;45919;51.420;5.454;2022-08-07T03:34:33;102446.16;;;13.82;74.50
59029;BME280;45919;51.420;5.454;2022-08-07T03:35:38;102442.59;;;13.80;74.31
59029;BME280;45919;51.420;5.454;2022-08-07T03:36:41;102411.56;;;13.65;74.53
59029;BME280;45919;51.420;5.454;2022-08-07T03:37:45;102440.09;;;13.83;74.57
59029;BME280;45919;51.420;5.454;2022-08-07T03:38:51;102444.50;;;13.86;74.69
59029;BME280;45919;51.420;5.454;2022-08-07T03:39:53;102440.91;;;13.82;74.85
59029;BME280;45919;51.420;5.454;2022-08-07T03:40:56;102440.81;;;13.78;74.45
59029;BME280;45919;51.420;5.454;2022-08-07T03:41:58;102447.81;;;13.79;74.64
59029;BME280;45919;51.420;5.454;2022-08-07T03:43:00;102430.03;;;13.68;74.40
59029;BME280;45919;51.420;5.454;2022-08-07T03:44:03;102423.84;;;13.66;75.01
59029;BME280;45919;51.420;5.454;2022-08-07T03:45:06;102422.97;;;13.67;74.68
59029;BME280;45919;51.420;5.454;2022-08-07T03:46:08;102439.03;;;13.78;74.70
59029;BME280;45919;51.420;5.454;2022-08-07T03:47:10;102434.59;;;13.75;75.29
59029;BME280;45919;51.420;5.454;2022-08-07T03:48:12;102438.03;;;13.73;74.97
59029;BME280;45919;51.420;5.454;2022-08-07T03:49:14;102435.41;;;13.73;74.97
59029;BME280;45919;51.420;5.454;2022-08-07T03:50:18;102442.53;;;13.77;74.76
59029;BME280;45919;51.420;5.454;2022-08-07T03:51:20;102442.53;;;13.77;75.15
59029;BME280;45919;51.420;5.454;2022-08-07T03:52:26;102446.13;;;13.81;75.35
59029;BME280;45919;51.420;5.454;2022-08-07T03:53:28;102424.78;;;13.68;75.34
59029;BME280;45919;51.420;5.454;2022-08-07T03:54:30;102438.97;;;13.75;75.43
59029;BME280;45919;51.420;5.454;2022-08-07T03:55:32;102436.38;;;13.77;75.48
59029;BME280;45919;51.420;5.454;2022-08-07T03:56:36;102441.63;;;13.77;75.57
59029;BME280;45919;51.420;5.454;2022-08-07T03:57:40;102445.91;;;13.73;75.84
59029;BME280;45919;51.420;5.454;2022-08-07T03:58:42;102443.28;;;13.73;75.30
59029;BME280;45919;51.420;5.454;2022-08-07T03:59:44;102450.28;;;13.72;75.77
59029;BME280;45919;51.420;5.454;2022-08-07T04:00:48;102450.28;;;13.72;76.44
59029;BME280;45919;51.420;5.454;2022-08-07T04:01:52;102442.25;;;13.68;76.11
59029;BME280;45919;51.420;5.454;2022-08-07T04:02:54;102441.50;;;13.72;76.22
59029;BME280;45919;51.420;5.454;2022-08-07T04:03:56;102438.81;;;13.69;76.16
59029;BME280;45919;51.420;5.454;2022-08-07T04:04:58;102444.06;;;13.69;76.06
59029;BME280;45919;51.420;5.454;2022-08-07T04:06:00;102444.94;;;13.69;76.36
59029;BME280;45919;51.420;5.454;2022-08-07T04:07:02;102445.81;;;13.70;76.37
59029;BME280;45919;51.420;5.454;2022-08-07T04:08:04;102446.72;;;13.70;76.35
59029;BME280;45919;51.420;5.454;2022-08-07T04:09:06;102414.47;;;13.45;76.31
59029;BME280;45919;51.420;5.454;2022-08-07T04:10:08;102457.19;;;13.69;76.41
59029;BME280;45919;51.420;5.454;2022-08-07T04:11:10;102446.63;;;13.67;76.30
59029;BME280;45919;51.420;5.454;2022-08-07T04:12:13;102442.25;;;13.68;76.39
59029;BME280;45919;51.420;5.454;2022-08-07T04:13:16;102453.63;;;13.67;76.61
59029;BME280;45919;51.420;5.454;2022-08-07T04:14:18;102459.75;;;13.67;75.97
59029;BME280;45919;51.420;5.454;2022-08-07T04:15:20;102453.53;;;13.63;76.21
59029;BME280;45919;51.420;5.454;2022-08-07T04:16:22;102425.78;;;13.43;76.43
59029;BME280;45919;51.420;5.454;2022-08-07T04:17:24;102397.63;;;13.37;76.59
59029;BME280;45919;51.420;5.454;2022-08-07T04:18:26;102454.47;;;13.66;76.57
59029;BME280;45919;51.420;5.454;2022-08-07T04:19:27;102444.84;;;13.66;76.62
59029;BME280;45919;51.420;5.454;2022-08-07T04:20:29;102449.16;;;13.64;76.52
59029;BME280;45919;51.420;5.454;2022-08-07T04:21:31;102454.41;;;13.64;76.65
59029;BME280;45919;51.420;5.454;2022-08-07T04:22:33;102456.16;;;13.63;76.69
59029;BME280;45919;51.420;5.454;2022-08-07T04:23:35;102455.31;;;13.65;76.54
59029;BME280;45919;51.420;5.454;2022-08-07T04:24:38;102464.09;;;13.65;76.26
59029;BME280;45919;51.420;5.454;2022-08-07T04:25:40;102443.53;;;13.51;76.52
59029;BME280;45919;51.420;5.454;2022-08-07T04:26:42;102458.03;;;13.68;76.55
59029;BME280;45919;51.420;5.454;2022-08-07T04:27:44;102454.50;;;13.67;76.46
59029;BME280;45919;51.420;5.454;2022-08-07T04:28:46;102457.19;;;13.69;76.61
59029;BME280;45919;51.420;5.454;2022-08-07T04:29:48;102461.53;;;13.68;76.37
59029;BME280;45919;51.420;5.454;2022-08-07T04:30:50;102433.03;;;13.51;76.44
59029;BME280;45919;51.420;5.454;2022-08-07T04:31:51;102457.09;;;13.66;76.73
59029;BME280;45919;51.420;5.454;2022-08-07T04:32:53;102456.28;;;13.68;76.30
59029;BME280;45919;51.420;5.454;2022-08-07T04:33:56;102460.69;;;13.69;76.48
59029;BME280;45919;51.420;5.454;2022-08-07T04:35:00;102431.19;;;13.49;76.63
59029;BME280;45919;51.420;5.454;2022-08-07T04:36:03;102462.44;;;13.69;76.43
59029;BME280;45919;51.420;5.454;2022-08-07T04:37:05;102462.47;;;13.70;76.55
59029;BME280;45919;51.420;5.454;2022-08-07T04:38:07;102456.44;;;13.74;76.24
59029;BME280;45919;51.420;5.454;2022-08-07T04:39:09;102435.25;;;13.67;76.03
59029;BME280;45919;51.420;5.454;2022-08-07T04:40:11;102460.22;;;13.84;75.87
59029;BME280;45919;51.420;5.454;2022-08-07T04:41:13;102456.94;;;13.92;75.46
59029;BME280;45919;51.420;5.454;2022-08-07T04:42:15;102456.22;;;13.97;75.17
59029;BME280;45919;51.420;5.454;2022-08-07T04:43:19;102424.44;;;13.88;75.05
59029;BME280;45919;51.420;5.454;2022-08-07T04:44:21;102474.97;;;14.11;74.42
59029;BME280;45919;51.420;5.454;2022-08-07T04:45:28;102460.31;;;14.20;74.78
59029;BME280;45919;51.420;5.454;2022-08-07T04:47:49;102464.31;;;14.41;74.20
59029;BME280;45919;51.420;5.454;2022-08-07T04:50:16;102468.84;;;14.46;73.59
59029;BME280;45919;51.420;5.454;2022-08-07T04:51:27;102463.81;;;14.56;73.01
59029;BME280;45919;51.420;5.454;2022-08-07T04:52:52;102472.91;;;14.69;73.15
59029;BME280;45919;51.420;5.454;2022-08-07T04:54:04;102466.66;;;14.64;72.36
59029;BME280;45919;51.420;5.454;2022-08-07T04:55:28;102468.88;;;14.82;72.50
59029;BME280;45919;51.420;5.454;2022-08-07T04:56:37;102479.16;;;14.74;72.41
59029;BME280;45919;51.420;5.454;2022-08-07T04:58:36;102471.78;;;14.94;72.31
59029;BME280;45919;51.420;5.454;2022-08-07T05:00:06;102458.44;;;14.87;71.65
59029;BME280;45919;51.420;5.454;2022-08-07T05:01:16;102470.88;;;14.94;71.48
59029;BME280;45919;51.420;5.454;2022-08-07T05:02:27;102462.97;;;14.92;71.49
59029;BME280;45919;51.420;5.454;2022-08-07T05:03:42;102473.00;;;15.11;71.31
59029;BME280;45919;51.420;5.454;2022-08-07T05:06:41;102465.66;;;15.37;70.12
59029;BME280;45919;51.420;5.454;2022-08-07T05:08:01;102463.84;;;15.33;69.95
59029;BME280;45919;51.420;5.454;2022-08-07T05:09:09;102483.78;;;15.22;70.29
59029;BME280;45919;51.420;5.454;2022-08-07T05:10:36;102470.91;;;15.36;70.30
59029;BME280;45919;51.420;5.454;2022-08-07T05:11:43;102452.03;;;15.15;69.39
59029;BME280;45919;51.420;5.454;2022-08-07T05:12:53;102480.47;;;15.30;69.82
59029;BME280;45919;51.420;5.454;2022-08-07T05:14:01;102447.69;;;15.16;69.70
59029;BME280;45919;51.420;5.454;2022-08-07T05:15:09;102463.50;;;15.17;69.23
59029;BME280;45919;51.420;5.454;2022-08-07T05:16:19;102475.84;;;15.20;69.48
59029;BME280;45919;51.420;5.454;2022-08-07T05:17:24;102479.31;;;15.19;69.37
59029;BME280;45919;51.420;5.454;2022-08-07T05:18:28;102472.13;;;15.10;69.63
59029;BME280;45919;51.420;5.454;2022-08-07T05:19:35;102482.72;;;15.13;69.80
59029;BME280;45919;51.420;5.454;2022-08-07T05:20:44;102488.03;;;15.15;69.81
59029;BME280;45919;51.420;5.454;2022-08-07T05:21:53;102483.59;;;15.14;69.53
59029;BME280;45919;51.420;5.454;2022-08-07T05:22:59;102482.59;;;15.09;70.01
59029;BME280;45919;51.420;5.454;2022-08-07T05:24:03;102479.94;;;15.07;69.58
59029;BME280;45919;51.420;5.454;2022-08-07T05:25:07;102454.97;;;14.88;69.81
59029;BME280;45919;51.420;5.454;2022-08-07T05:26:16;102479.94;;;15.07;69.91
59029;BME280;45919;51.420;5.454;2022-08-07T05:27:20;102481.56;;;15.00;69.94
59029;BME280;45919;51.420;5.454;2022-08-07T05:28:22;102483.31;;;15.01;69.72
59029;BME280;45919;51.420;5.454;2022-08-07T05:29:25;102481.59;;;15.02;69.75
59029;BME280;45919;51.420;5.454;2022-08-07T05:30:27;102488.63;;;15.03;69.55
59029;BME280;45919;51.420;5.454;2022-08-07T05:31:34;102482.59;;;15.07;69.86
59029;BME280;45919;51.420;5.454;2022-08-07T05:32:39;102482.50;;;15.02;69.66
59029;BME280;45919;51.420;5.454;2022-08-07T05:33:41;102485.16;;;15.04;69.76
59029;BME280;45919;51.420;5.454;2022-08-07T05:34:44;102489.56;;;15.06;69.53
59029;BME280;45919;51.420;5.454;2022-08-07T05:35:48;102474.53;;;15.01;69.83
59029;BME280;45919;51.420;5.454;2022-08-07T05:36:52;102487.03;;;15.10;69.61
59029;BME280;45919;51.420;5.454;2022-08-07T05:37:54;102494.88;;;15.08;69.75
59029;BME280;45919;51.420;5.454;2022-08-07T05:38:57;102489.56;;;15.06;69.21
59029;BME280;45919;51.420;5.454;2022-08-07T05:40:02;102496.72;;;15.12;69.57
59029;BME280;45919;51.420;5.454;2022-08-07T05:41:04;102488.84;;;15.12;69.46
59029;BME280;45919;51.420;5.454;2022-08-07T05:42:06;102492.38;;;15.13;68.53